Time;durP1;ratioP1;P1;durP2;ratioP2;P2;SDS_P1;SDS_P2;PMS_P1;PMS_P2;Temp;Humidity;BMP_temperature;BMP_pressure;BME280_temperature;BME280_humidity;BME280_pressure;Samples;Min_cycle;Max_cycle;Signal;HPM_P1;HPM_P2
2023/07/30 00:02:03;;;;;;;8.25;7.82;;;;;;;19.36;65.37;92732.50;5052164;28;20224;-79
2023/07/30 00:04:29;;;;;;;8.67;8.17;;;;;;;19.53;64.80;92729.66;5044948;28;20185;-79
2023/07/30 00:06:54;;;;;;;9.40;8.80;;;;;;;19.46;64.64;92728.63;5047406;28;20223;-79
2023/07/30 00:09:19;;;;;;;9.27;8.60;;;;;;;19.32;64.85;92709.63;5052627;28;20196;-79
2023/07/30 00:11:45;;;;;;;9.00;8.37;;;;;;;19.34;65.04;92721.47;5051959;28;20273;-79
2023/07/30 00:14:10;;;;;;;8.73;8.23;;;;;;;19.29;64.98;92726.97;5052822;28;20185;-79
2023/07/30 00:16:36;;;;;;;10.17;9.37;;;;;;;19.32;65.50;92725.53;5051545;28;20241;-79
2023/07/30 00:19:01;;;;;;;9.43;8.83;;;;;;;19.30;64.67;92723.19;5052131;28;20196;-79
2023/07/30 00:21:27;;;;;;;8.63;8.13;;;;;;;19.28;64.85;92724.66;5049882;28;20221;-79
2023/07/30 00:23:52;;;;;;;8.37;7.97;;;;;;;19.23;65.06;92722.94;5052162;28;20196;-79
2023/07/30 00:26:18;;;;;;;9.13;8.57;;;;;;;19.28;65.65;92720.13;5051634;28;20232;-79
2023/07/30 00:28:43;;;;;;;9.50;9.00;;;;;;;19.32;66.43;92714.94;5052287;28;20186;-79
2023/07/30 00:31:09;;;;;;;9.07;8.37;;;;;;;19.43;66.49;92719.47;5051655;28;20240;-79
2023/07/30 00:33:34;;;;;;;9.67;9.07;;;;;;;19.45;65.99;92719.16;5044501;28;20220;-79
2023/07/30 00:35:59;;;;;;;9.03;8.50;;;;;;;19.44;66.32;92718.38;5069035;28;20230;-79
2023/07/30 00:38:25;;;;;;;10.70;10.00;;;;;;;19.22;66.78;92710.03;5071919;28;20194;-79
2023/07/30 00:40:50;;;;;;;9.17;8.57;;;;;;;19.25;67.62;92699.56;5060466;28;20231;-78
2023/07/30 00:43:16;;;;;;;8.53;8.13;;;;;;;19.03;67.79;92692.03;5051483;28;20249;-79
2023/07/30 00:45:43;;;;;;;8.87;8.30;;;;;;;19.03;67.86;92705.25;5060900;28;20234;-79
2023/07/30 00:48:10;;;;;;;8.60;8.10;;;;;;;18.94;67.72;92709.88;5072028;28;20189;-78
2023/07/30 00:50:36;;;;;;;8.60;8.20;;;;;;;18.90;69.50;92708.97;5070852;28;20239;-79
2023/07/30 00:53:02;;;;;;;9.97;9.43;;;;;;;19.01;68.63;92710.09;5071645;28;20187;-79
2023/07/30 00:55:27;;;;;;;8.90;8.40;;;;;;;18.80;68.73;92709.41;5070005;28;20218;-79
2023/07/30 00:57:53;;;;;;;10.23;9.50;;;;;;;18.82;69.79;92715.13;5071540;28;20191;-79
2023/07/30 01:00:19;;;;;;;9.53;8.93;;;;;;;18.85;69.57;92706.53;5076047;28;20233;-79
2023/07/30 01:02:44;;;;;;;9.57;8.97;;;;;;;18.89;69.54;92713.50;5082102;28;20217;-78
2023/07/30 01:05:10;;;;;;;9.80;9.17;;;;;;;18.99;69.22;92713.06;5065682;28;20223;-79
2023/07/30 01:07:35;;;;;;;10.13;9.13;;;;;;;18.83;70.96;92714.03;5051231;28;20206;-78
2023/07/30 01:10:02;;;;;;;9.37;8.73;;;;;;;18.85;70.61;92711.81;5050913;28;20224;-79
2023/07/30 01:12:30;;;;;;;10.60;9.93;;;;;;;18.82;70.71;92713.25;5051806;28;20184;-80
2023/07/30 01:14:56;;;;;;;9.87;9.23;;;;;;;18.93;70.64;92703.03;5043915;28;20244;-80
2023/07/30 01:17:23;;;;;;;10.40;9.80;;;;;;;19.14;70.29;92714.34;5051058;28;20201;-79
2023/07/30 01:19:54;;;;;;;8.60;8.20;;;;;;;19.16;69.79;92717.41;5051302;28;20176;-78
2023/07/30 01:22:19;;;;;;;8.73;8.33;;;;;;;18.97;69.88;92720.56;5051750;28;20216;-77
2023/07/30 01:24:46;;;;;;;9.27;8.77;;;;;;;18.89;69.87;92713.50;5051460;28;20188;-79
2023/07/30 01:27:30;;;;;;;8.97;8.50;;;;;;;18.73;70.91;92704.63;5051786;28;20279;-79
2023/07/30 01:30:03;;;;;;;8.30;7.90;;;;;;;18.59;71.38;92713.94;5051470;28;21366;-79
2023/07/30 01:32:29;;;;;;;10.00;9.50;;;;;;;18.77;70.59;92716.09;5039056;28;20195;-79
2023/07/30 01:34:57;;;;;;;9.20;8.70;;;;;;;18.73;71.11;92709.91;5054476;28;20235;-78
2023/07/30 01:37:23;;;;;;;9.33;8.73;;;;;;;18.57;70.48;92700.25;5069972;28;20195;-79
2023/07/30 01:39:49;;;;;;;9.70;9.10;;;;;;;18.61;70.49;92701.94;5071127;28;20237;-79
2023/07/30 01:42:15;;;;;;;9.63;9.13;;;;;;;18.70;70.88;92720.38;5071643;28;20194;-79
2023/07/30 01:44:41;;;;;;;9.20;8.70;;;;;;;18.81;71.24;92716.22;5071646;28;20186;-78
2023/07/30 01:47:07;;;;;;;10.00;9.10;;;;;;;18.55;71.67;92721.72;5071494;28;20187;-78
2023/07/30 01:49:32;;;;;;;9.23;8.73;;;;;;;18.62;71.65;92718.56;5071153;28;20191;-78
2023/07/30 01:51:57;;;;;;;8.30;7.83;;;;;;;18.74;71.59;92721.28;5071543;28;20199;-79
2023/07/30 01:54:23;;;;;;;9.33;8.83;;;;;;;18.69;71.70;92709.00;5070718;28;20180;-84
2023/07/30 01:56:48;;;;;;;9.47;8.57;;;;;;;18.56;72.55;92720.66;5069922;28;20226;-83
2023/07/30 01:59:14;;;;;;;8.90;8.50;;;;;;;18.55;72.89;92713.03;5070749;28;20209;-80
2023/07/30 02:01:39;;;;;;;10.47;9.77;;;;;;;18.44;73.21;92723.25;5059909;28;20310;-80
2023/07/30 02:04:05;;;;;;;9.33;8.83;;;;;;;18.36;73.79;92715.34;5069083;28;20204;-82
2023/07/30 02:06:30;;;;;;;10.03;9.53;;;;;;;18.55;73.16;92726.25;5069691;28;20210;-82
2023/07/30 02:08:55;;;;;;;9.33;8.87;;;;;;;18.52;72.71;92727.66;5071027;28;20204;-82
2023/07/30 02:11:21;;;;;;;9.50;9.00;;;;;;;18.54;73.13;92716.75;5070646;28;20255;-82
2023/07/30 02:13:46;;;;;;;10.17;9.63;;;;;;;18.41;73.23;92725.75;5070942;28;21472;-82
2023/07/30 02:16:11;;;;;;;9.63;9.13;;;;;;;18.38;74.75;92729.03;5056482;28;20303;-81
2023/07/30 02:18:37;;;;;;;10.07;9.53;;;;;;;18.50;74.03;92726.44;5050710;28;20183;-82
2023/07/30 02:21:02;;;;;;;9.37;8.77;;;;;;;18.59;73.78;92724.50;5064473;28;20217;-82
2023/07/30 02:23:28;;;;;;;9.97;9.27;;;;;;;18.35;74.22;92717.19;5070058;28;20185;-79
2023/07/30 02:25:53;;;;;;;9.40;8.90;;;;;;;18.33;74.12;92721.28;5058989;28;20274;-81
2023/07/30 02:28:19;;;;;;;9.43;8.93;;;;;;;18.39;74.09;92728.72;5050469;28;20243;-82
2023/07/30 02:30:44;;;;;;;9.50;8.77;;;;;;;18.34;74.48;92736.03;5060384;28;20214;-82
2023/07/30 02:33:09;;;;;;;9.53;8.87;;;;;;;18.16;75.76;92731.97;5070607;28;20182;-83
2023/07/30 02:35:35;;;;;;;9.87;9.07;;;;;;;18.30;75.01;92735.13;5070042;28;20253;-82
2023/07/30 02:38:00;;;;;;;9.40;8.70;;;;;;;18.34;74.92;92736.03;5070683;28;20207;-82
2023/07/30 02:40:26;;;;;;;9.20;8.60;;;;;;;18.32;75.03;92746.16;5070023;28;20226;-81
2023/07/30 02:42:51;;;;;;;10.00;9.30;;;;;;;18.30;74.76;92743.06;5069325;28;20190;-82
2023/07/30 02:45:17;;;;;;;10.20;9.70;;;;;;;18.12;74.84;92736.34;5070335;28;20221;-82
2023/07/30 02:47:43;;;;;;;9.00;8.30;;;;;;;18.09;74.36;92727.19;5070663;28;20187;-82
2023/07/30 02:50:09;;;;;;;9.60;8.90;;;;;;;18.32;74.33;92741.63;5069791;28;20249;-83
2023/07/30 02:52:34;;;;;;;9.53;8.93;;;;;;;18.36;74.34;92742.56;5069875;28;20198;-83
2023/07/30 02:54:59;;;;;;;9.67;8.97;;;;;;;18.22;74.61;92742.03;5066184;28;20232;-82
2023/07/30 02:57:25;;;;;;;11.03;9.97;;;;;;;18.22;74.91;92735.97;5050143;28;20186;-82
2023/07/30 02:59:50;;;;;;;9.90;9.30;;;;;;;18.26;74.97;92734.22;5049872;28;20180;-82
2023/07/30 03:02:15;;;;;;;9.80;9.03;;;;;;;18.35;75.45;92737.59;5049844;28;20248;-81
2023/07/30 03:04:41;;;;;;;9.27;8.67;;;;;;;18.17;76.56;92739.56;5049958;28;20194;-82
2023/07/30 03:07:06;;;;;;;10.50;9.80;;;;;;;18.21;75.79;92734.44;5048835;28;20194;-82
2023/07/30 03:09:32;;;;;;;9.57;8.97;;;;;;;18.27;75.34;92741.06;5049397;28;20196;-78
2023/07/30 03:11:58;;;;;;;10.47;9.70;;;;;;;18.21;75.35;92742.34;5049928;28;20214;-78
2023/07/30 03:14:24;;;;;;;10.23;9.53;;;;;;;18.12;74.64;92738.97;5049563;28;20179;-82
2023/07/30 03:16:50;;;;;;;10.60;9.90;;;;;;;18.31;74.53;92745.38;5048904;28;20235;-82
2023/07/30 03:19:16;;;;;;;9.67;9.07;;;;;;;18.44;75.00;92748.91;5049789;28;20225;-81
2023/07/30 03:21:42;;;;;;;9.80;9.20;;;;;;;18.32;75.01;92751.47;5069157;28;20221;-82
2023/07/30 03:24:07;;;;;;;9.50;9.00;;;;;;;18.38;74.64;92747.56;5069779;28;20174;-82
2023/07/30 03:26:33;;;;;;;10.07;9.47;;;;;;;18.46;74.00;92741.44;5051195;28;20265;-81
2023/07/30 03:28:58;;;;;;;9.13;8.73;;;;;;;18.50;74.10;92742.31;5050279;28;20214;-82
2023/07/30 03:31:23;;;;;;;9.13;8.47;;;;;;;18.50;73.77;92729.09;5064476;28;20220;-81
2023/07/30 03:33:49;;;;;;;9.40;8.90;;;;;;;18.58;73.54;92739.63;5070080;28;20221;-81
2023/07/30 03:36:14;;;;;;;9.07;8.50;;;;;;;18.66;73.65;92741.41;5069075;28;20230;-82
2023/07/30 03:38:41;;;;;;;9.67;9.07;;;;;;;18.62;72.58;92742.38;5069799;28;20215;-82
2023/07/30 03:41:06;;;;;;;10.50;9.23;;;;;;;18.60;73.18;92742.69;5060286;28;20220;-81
2023/07/30 03:43:34;;;;;;;17.97;9.47;;;;;;;18.66;74.58;92744.03;5069952;28;20265;-82
2023/07/30 03:46:00;;;;;;;35.73;14.33;;;;;;;18.67;75.91;92735.03;5069267;28;20238;-80
2023/07/30 03:48:26;;;;;;;10.40;9.13;;;;;;;18.60;77.98;92742.69;5069928;28;20183;-81
2023/07/30 03:50:53;;;;;;;9.90;9.23;;;;;;;18.64;76.36;92730.38;5069321;28;20216;-82
2023/07/30 03:53:18;;;;;;;9.70;9.00;;;;;;;18.78;74.91;92740.69;5069736;28;20255;-83
2023/07/30 03:55:44;;;;;;;10.50;9.60;;;;;;;18.82;74.75;92750.28;5068691;28;20223;-79
2023/07/30 03:58:09;;;;;;;8.93;8.33;;;;;;;18.89;74.09;92755.06;5069777;28;20187;-83
2023/07/30 04:00:34;;;;;;;8.77;8.27;;;;;;;18.99;74.38;92754.63;5068931;28;20224;-82
2023/07/30 04:03:00;;;;;;;10.20;9.27;;;;;;;18.94;75.46;92739.75;5069389;28;20193;-82
2023/07/30 04:05:25;;;;;;;9.03;8.53;;;;;;;19.04;75.95;92743.84;5069028;28;20220;-82
2023/07/30 04:07:50;;;;;;;8.90;8.40;;;;;;;19.21;74.94;92758.81;5069425;28;20213;-81
2023/07/30 04:10:16;;;;;;;9.77;9.20;;;;;;;19.30;74.45;92747.03;5068832;28;20261;-81
2023/07/30 04:12:41;;;;;;;9.67;8.93;;;;;;;19.28;74.25;92751.91;5068122;28;20176;-80
2023/07/30 04:15:07;;;;;;;9.60;9.10;;;;;;;19.45;74.27;92759.66;5068990;28;20243;-82
2023/07/30 04:17:35;;;;;;;9.93;9.33;;;;;;;19.56;74.30;92752.81;5069074;28;20247;-82
2023/07/30 04:20:00;;;;;;;9.83;9.23;;;;;;;19.62;73.79;92759.44;5071316;28;20756;-82
2023/07/30 04:22:25;;;;;;;9.43;8.73;;;;;;;19.73;73.13;92760.56;5072796;28;20195;-82
2023/07/30 04:24:51;;;;;;;9.73;8.80;;;;;;;19.88;73.21;92765.19;5072177;28;21643;-80
2023/07/30 04:27:16;;;;;;;9.97;9.37;;;;;;;20.05;73.44;92769.50;5053566;28;20189;-82
2023/07/30 04:29:41;;;;;;;8.95;8.43;;;;;;;20.01;73.39;92763.31;5066872;28;20193;-82
2023/07/30 04:32:07;;;;;;;8.83;8.13;;;;;;;19.86;72.65;92726.91;5069612;28;20212;-81
2023/07/30 04:34:32;;;;;;;9.15;8.38;;;;;;;20.16;72.53;92766.09;5071733;28;20196;-80
2023/07/30 04:36:58;;;;;;;9.55;9.00;;;;;;;20.27;71.54;92761.91;5069968;28;20211;-79
2023/07/30 04:39:23;;;;;;;9.65;9.05;;;;;;;20.37;70.58;92755.38;5073477;28;20192;-82
2023/07/30 04:41:48;;;;;;;8.80;8.30;;;;;;;20.36;70.09;92737.88;5071190;28;20227;-76
2023/07/30 04:44:14;;;;;;;8.75;8.18;;;;;;;20.83;67.82;92767.28;5072415;28;20185;-75
2023/07/30 04:46:39;;;;;;;9.68;9.07;;;;;;;20.99;66.50;92776.09;5072614;28;20232;-74
2023/07/30 04:49:05;;;;;;;10.43;9.77;;;;;;;20.78;69.74;92773.59;5062788;28;20208;-74
2023/07/30 04:51:30;;;;;;;11.43;10.63;;;;;;;20.45;69.50;92773.78;5055744;28;20303;-78
2023/07/30 04:53:55;;;;;;;9.15;8.55;;;;;;;20.41;69.90;92762.31;5045796;28;20208;-80
2023/07/30 04:56:21;;;;;;;9.75;9.05;;;;;;;20.53;65.41;92774.75;5061024;28;20265;-79
2023/07/30 04:58:46;;;;;;;10.20;9.60;;;;;;;20.61;65.80;92765.91;5068564;28;20208;-79
2023/07/30 05:01:12;;;;;;;10.02;9.25;;;;;;;20.83;65.69;92781.31;5071040;28;20235;-78
2023/07/30 05:03:37;;;;;;;9.82;9.20;;;;;;;20.84;66.00;92779.44;5070673;28;20188;-78
2023/07/30 05:06:03;;;;;;;10.68;9.88;;;;;;;20.97;66.39;92775.66;5063866;28;20249;-78
2023/07/30 05:08:28;;;;;;;10.55;9.65;;;;;;;21.10;65.37;92777.16;5070101;28;20223;-78
2023/07/30 05:10:53;;;;;;;10.32;9.50;;;;;;;20.99;66.99;92773.44;5058576;28;20224;-79
2023/07/30 05:13:19;;;;;;;10.57;9.77;;;;;;;20.91;67.87;92769.03;5062724;28;20192;-80
2023/07/30 05:15:44;;;;;;;10.77;9.88;;;;;;;21.37;66.75;92774.47;5059355;28;20237;-79
2023/07/30 05:18:10;;;;;;;10.57;9.88;;;;;;;21.46;66.40;92779.66;5070004;28;20223;-79
2023/07/30 05:20:35;;;;;;;10.45;9.65;;;;;;;21.56;64.93;92782.56;5059580;28;20263;-75
2023/07/30 05:23:02;;;;;;;11.68;9.57;;;;;;;21.73;64.57;92779.59;5061878;28;20204;-79
2023/07/30 05:25:27;;;;;;;12.88;8.93;;;;;;;21.78;64.38;92781.25;5065000;28;20236;-80
2023/07/30 05:27:53;;;;;;;11.20;10.20;;;;;;;21.53;66.56;92780.59;5070253;28;20909;-78
2023/07/30 05:30:18;;;;;;;10.60;9.90;;;;;;;21.36;66.38;92780.13;5069862;28;20255;-78
2023/07/30 05:32:44;;;;;;;9.93;9.23;;;;;;;21.31;66.64;92783.06;5095114;28;20291;-78
2023/07/30 05:35:09;;;;;;;10.30;9.60;;;;;;;21.52;64.93;92779.06;5070059;28;20256;-79
2023/07/30 05:37:34;;;;;;;9.95;9.32;;;;;;;21.42;64.79;92782.22;5069763;28;20219;-76
2023/07/30 05:40:00;;;;;;;10.63;9.57;;;;;;;21.68;64.82;92771.09;5066221;28;20250;-79
2023/07/30 05:42:25;;;;;;;11.63;10.75;;;;;;;22.17;63.20;92788.25;5069155;28;20265;-79
2023/07/30 05:44:50;;;;;;;10.88;9.88;;;;;;;22.37;61.20;92792.53;5064522;28;20234;-78
2023/07/30 05:47:16;;;;;;;10.40;9.70;;;;;;;22.16;61.20;92760.88;5069774;28;20189;-77
2023/07/30 05:49:41;;;;;;;10.93;9.90;;;;;;;22.18;61.84;92793.22;5069312;28;20191;-78
2023/07/30 05:52:07;;;;;;;10.48;9.82;;;;;;;22.53;60.52;92790.63;5062697;28;20197;-77
2023/07/30 05:54:32;;;;;;;11.23;10.05;;;;;;;23.28;57.88;92794.50;5065197;28;20631;-75
2023/07/30 05:56:57;;;;;;;10.25;9.45;;;;;;;27.49;46.16;92805.94;5064797;28;20212;-81
2023/07/30 05:59:23;;;;;;;9.43;8.63;;;;;;;31.60;35.63;92825.97;5064361;28;20190;-79
2023/07/30 06:01:48;;;;;;;9.30;8.70;;;;;;;31.94;33.76;92811.25;5069766;28;20541;-74
2023/07/30 06:04:13;;;;;;;8.55;8.05;;;;;;;31.08;35.48;92820.69;5060915;28;20241;-75
2023/07/30 06:06:39;;;;;;;10.70;8.85;;;;;;;33.61;30.95;92821.69;5041541;28;20267;-75
2023/07/30 06:09:04;;;;;;;9.07;8.38;;;;;;;33.24;32.23;92824.69;5043474;28;20249;-76
2023/07/30 06:11:30;;;;;;;8.45;7.80;;;;;;;35.31;28.53;92841.84;5077789;28;20245;-78
2023/07/30 06:13:55;;;;;;;10.77;7.93;;;;;;;35.56;26.82;92836.56;5034102;28;20202;-68
2023/07/30 06:16:21;;;;;;;9.23;8.40;;;;;;;34.32;29.24;92837.25;5061681;28;20272;-68
2023/07/30 06:18:47;;;;;;;8.05;7.25;;;;;;;37.74;24.80;92841.47;5060061;28;20189;-69
2023/07/30 06:21:12;;;;;;;9.75;7.93;;;;;;;34.07;29.26;92829.66;5069287;28;20229;-70
2023/07/30 06:23:38;;;;;;;7.85;7.18;;;;;;;35.46;28.06;92840.31;5097991;28;20250;-73
2023/07/30 06:26:03;;;;;;;7.88;7.25;;;;;;;34.67;27.83;92826.38;5069302;28;20232;-70
2023/07/30 06:28:28;;;;;;;8.30;7.40;;;;;;;35.00;28.30;92833.34;5068955;28;20182;-70
2023/07/30 06:30:54;;;;;;;6.95;6.55;;;;;;;34.65;28.11;92826.03;5079044;28;20220;-71
2023/07/30 06:33:19;;;;;;;7.50;6.80;;;;;;;34.62;28.26;92837.72;5067030;28;20218;-71
2023/07/30 06:35:45;;;;;;;7.25;6.75;;;;;;;36.33;26.00;92839.06;5058519;28;20260;-69
2023/07/30 06:38:10;;;;;;;7.40;6.90;;;;;;;37.25;25.05;92837.69;5067115;28;20210;-69
2023/07/30 06:40:35;;;;;;;9.05;7.95;;;;;;;32.86;31.27;92820.72;5061058;28;20225;-68
2023/07/30 06:43:01;;;;;;;7.70;7.25;;;;;;;31.15;34.13;92814.47;5062713;28;20193;-67
2023/07/30 06:45:26;;;;;;;8.70;7.88;;;;;;;29.00;37.79;92808.78;5067174;28;20229;-67
2023/07/30 06:47:52;;;;;;;8.75;8.05;;;;;;;26.62;44.58;92805.06;5067141;28;20189;-68
2023/07/30 06:50:17;;;;;;;9.50;8.65;;;;;;;26.29;46.97;92785.72;5058875;28;20243;-67
2023/07/30 06:52:42;;;;;;;9.73;9.02;;;;;;;26.56;46.85;92790.50;5061509;28;20194;-67
2023/07/30 06:55:08;;;;;;;9.20;8.63;;;;;;;26.30;45.86;92787.25;5067481;28;20272;-66
2023/07/30 06:57:33;;;;;;;9.70;9.00;;;;;;;25.68;49.17;92782.84;5062727;28;20236;-67
2023/07/30 07:00:00;;;;;;;11.07;8.40;;;;;;;25.47;50.63;92772.69;5064685;28;20237;-67
2023/07/30 07:02:25;;;;;;;10.20;9.38;;;;;;;25.48;51.27;92771.53;5061161;28;20189;-69
2023/07/30 07:04:51;;;;;;;9.48;8.65;;;;;;;25.54;49.16;92772.78;5068486;28;20241;-68
2023/07/30 07:07:16;;;;;;;9.60;9.00;;;;;;;25.59;48.95;92774.34;5046477;28;20219;-69
2023/07/30 07:09:42;;;;;;;14.55;12.98;;;;;;;25.42;52.21;92765.00;5045889;28;20197;-69
2023/07/30 07:12:07;;;;;;;10.43;9.52;;;;;;;25.61;49.80;92774.75;5045071;28;20386;-68
2023/07/30 07:14:33;;;;;;;9.73;9.10;;;;;;;25.59;49.94;92769.75;5045611;28;20196;-70
2023/07/30 07:16:58;;;;;;;10.93;9.65;;;;;;;25.71;50.10;92772.19;5061713;28;20286;-70
2023/07/30 07:19:24;;;;;;;10.95;10.27;;;;;;;25.35;51.70;92772.94;5059616;28;20208;-68
2023/07/30 07:21:49;;;;;;;12.07;10.93;;;;;;;25.73;50.01;92761.88;5059012;28;20221;-70
2023/07/30 07:24:16;;;;;;;11.10;10.27;;;;;;;25.94;50.28;92764.75;5056065;28;20196;-69
2023/07/30 07:26:41;;;;;;;10.63;9.93;;;;;;;25.98;49.61;92754.84;5046714;28;20244;-68
2023/07/30 07:29:07;;;;;;;10.98;9.95;;;;;;;25.73;49.81;92758.44;5040590;28;20254;-68
2023/07/30 07:31:41;;;;;;;16.05;13.20;;;;;;;25.93;48.13;92741.78;5141912;23;20222;-70
2023/07/30 07:34:07;;;;;;;11.07;10.07;;;;;;;25.87;48.67;92755.91;4984332;28;20227;-73
2023/07/30 07:36:33;;;;;;;10.90;10.10;;;;;;;25.61;50.53;92748.00;4984112;28;20235;-71
2023/07/30 07:38:58;;;;;;;10.25;9.55;;;;;;;26.04;50.01;92745.34;4989408;28;20188;-70
2023/07/30 07:41:25;;;;;;;11.73;10.88;;;;;;;26.00;49.04;92735.75;4981873;28;20244;-70
2023/07/30 07:43:52;;;;;;;10.95;10.02;;;;;;;25.71;50.50;92745.44;4989223;28;20190;-70
2023/07/30 07:46:18;;;;;;;10.90;10.00;;;;;;;26.17;49.99;92751.97;4988059;28;20263;-68
2023/07/30 07:48:44;;;;;;;9.55;8.93;;;;;;;26.05;47.78;92738.88;4988718;28;20191;-68
2023/07/30 07:51:10;;;;;;;10.27;9.57;;;;;;;25.88;49.35;92741.38;4988828;28;20291;-67
2023/07/30 07:53:36;;;;;;;11.98;10.13;;;;;;;26.31;48.37;92752.06;4991199;28;20192;-67
2023/07/30 07:56:02;;;;;;;9.43;8.73;;;;;;;25.98;48.27;92743.34;4992958;28;20219;-66
2023/07/30 07:58:28;;;;;;;13.80;10.43;;;;;;;25.95;49.02;92734.16;4993033;28;20192;-66
2023/07/30 08:00:57;;;;;;;8.93;8.20;;;;;;;26.28;47.55;92752.03;4993151;28;20235;-69
2023/07/30 08:03:23;;;;;;;13.02;9.48;;;;;;;26.48;47.94;92746.06;4991371;28;20273;-66
2023/07/30 08:05:49;;;;;;;8.90;8.40;;;;;;;26.77;45.92;92737.06;4993146;28;20220;-66
2023/07/30 08:08:15;;;;;;;11.25;10.13;;;;;;;26.35;46.62;92742.13;4990422;28;20192;-69
2023/07/30 08:10:43;;;;;;;9.15;8.40;;;;;;;26.72;45.67;92745.44;4987903;28;20282;-66
2023/07/30 08:13:12;;;;;;;10.55;9.73;;;;;;;26.85;45.68;92742.47;4991755;28;20234;-68
2023/07/30 08:15:37;;;;;;;10.98;10.13;;;;;;;26.96;45.14;92735.25;4988413;28;20250;-70
2023/07/30 08:18:03;;;;;;;9.80;8.93;;;;;;;26.89;43.85;92745.94;4990842;28;20200;-68
2023/07/30 08:20:28;;;;;;;10.48;9.48;;;;;;;26.94;43.51;92745.56;4984970;28;20228;-68
2023/07/30 08:22:53;;;;;;;8.23;7.72;;;;;;;26.99;43.72;92745.22;4992831;28;20192;-67
2023/07/30 08:25:19;;;;;;;9.35;8.65;;;;;;;26.97;43.58;92739.47;4992352;28;20255;-67
2023/07/30 08:27:44;;;;;;;9.65;8.75;;;;;;;26.93;44.30;92741.38;4991398;28;20207;-66
2023/07/30 08:30:10;;;;;;;9.23;8.20;;;;;;;26.88;43.03;92742.47;4991549;28;20191;-67
2023/07/30 08:32:35;;;;;;;8.40;7.78;;;;;;;27.05;42.65;92731.09;4990926;28;20234;-68
2023/07/30 08:35:01;;;;;;;9.35;8.85;;;;;;;27.51;42.18;92732.00;4992017;28;20203;-68
2023/07/30 08:37:26;;;;;;;9.80;8.80;;;;;;;27.56;41.03;92733.56;4992531;28;20219;-67
2023/07/30 08:39:52;;;;;;;10.05;9.30;;;;;;;27.41;41.96;92730.06;4992865;28;20203;-68
2023/07/30 08:42:17;;;;;;;9.27;8.68;;;;;;;27.51;40.88;92728.56;4991877;28;20248;-66
2023/07/30 08:44:43;;;;;;;14.95;9.40;;;;;;;27.49;40.60;92720.88;4991944;28;20576;-66
2023/07/30 08:47:10;;;;;;;13.93;9.10;;;;;;;27.68;41.58;92719.78;4991859;28;20231;-66
2023/07/30 08:49:35;;;;;;;8.80;8.07;;;;;;;27.86;39.67;92715.19;4992503;28;20265;-66
2023/07/30 08:52:02;;;;;;;9.40;8.70;;;;;;;27.93;38.28;92720.59;5006057;28;20240;-68
2023/07/30 08:54:30;;;;;;;9.90;9.20;;;;;;;27.76;39.70;92724.00;4992062;28;20203;-67
2023/07/30 08:56:57;;;;;;;9.05;8.40;;;;;;;27.54;39.33;92719.75;4991272;28;20266;-66
2023/07/30 08:59:24;;;;;;;9.45;8.75;;;;;;;27.71;38.12;92716.31;4992709;28;20196;-68
2023/07/30 09:01:52;;;;;;;9.65;9.02;;;;;;;27.15;38.82;92718.84;4990981;28;20231;-67
2023/07/30 09:04:18;;;;;;;10.50;9.40;;;;;;;27.46;39.73;92712.81;4990939;28;20196;-67
2023/07/30 09:06:43;;;;;;;9.00;8.35;;;;;;;28.16;39.01;92708.31;4991473;28;20243;-68
2023/07/30 09:09:10;;;;;;;8.45;7.88;;;;;;;28.23;36.88;92708.28;4991742;28;20184;-68
2023/07/30 09:11:36;;;;;;;9.30;8.70;;;;;;;28.17;35.34;92706.41;4989766;28;21160;-67
2023/07/30 09:14:01;;;;;;;9.27;8.68;;;;;;;27.98;34.45;92704.09;4985271;28;20188;-67
2023/07/30 09:16:27;;;;;;;8.88;8.27;;;;;;;28.41;36.11;92710.97;4991257;28;20587;-67
2023/07/30 09:18:55;;;;;;;9.77;9.07;;;;;;;28.62;34.26;92708.28;4982517;28;20196;-71
2023/07/30 09:21:32;;;;;;;9.07;8.35;;;;;;;28.04;36.40;92692.59;4988550;28;20284;-71
2023/07/30 09:24:00;;;;;;;9.20;8.65;;;;;;;28.12;35.93;92709.47;4995633;28;20191;-69
2023/07/30 09:26:25;;;;;;;9.20;8.60;;;;;;;28.55;34.46;92712.88;4990758;28;20230;-69
2023/07/30 09:28:50;;;;;;;8.70;8.15;;;;;;;28.56;34.94;92709.84;4991643;28;20216;-69
2023/07/30 09:31:16;;;;;;;9.18;8.57;;;;;;;28.67;34.28;92699.81;4991074;28;20224;-69
2023/07/30 09:33:44;;;;;;;9.75;8.90;;;;;;;28.40;34.54;92690.66;4990977;28;20223;-70
2023/07/30 09:36:10;;;;;;;9.95;9.13;;;;;;;28.34;34.49;92702.94;4991465;28;21022;-69
2023/07/30 09:38:39;;;;;;;9.80;9.05;;;;;;;28.20;35.51;92695.66;4990078;28;20215;-68
2023/07/30 09:41:05;;;;;;;9.45;8.65;;;;;;;28.30;34.57;92696.78;4990635;28;20224;-71
2023/07/30 09:43:34;;;;;;;10.18;9.38;;;;;;;28.34;34.79;92689.50;4990024;28;20195;-68
2023/07/30 09:46:04;;;;;;;8.80;8.30;;;;;;;28.24;33.80;92680.31;4990938;28;20223;-70
2023/07/30 09:48:31;;;;;;;10.25;9.45;;;;;;;28.26;34.95;92685.28;4986276;28;20252;-65
2023/07/30 09:50:59;;;;;;;9.25;8.55;;;;;;;28.63;34.94;92679.47;4983738;28;20235;-72
2023/07/30 09:53:24;;;;;;;11.52;9.98;;;;;;;28.95;34.26;92680.88;4990836;28;20779;-73
2023/07/30 09:55:50;;;;;;;9.40;8.75;;;;;;;28.23;34.18;92678.75;4990515;28;20236;-72
2023/07/30 09:58:16;;;;;;;10.88;9.70;;;;;;;28.54;34.90;92682.59;4990285;28;20198;-72
2023/07/30 10:00:44;;;;;;;10.23;9.43;;;;;;;28.54;34.38;92677.22;4992800;28;20232;-72
2023/07/30 10:03:12;;;;;;;10.50;9.65;;;;;;;28.69;33.74;92683.28;4989784;28;20192;-72
2023/07/30 10:05:39;;;;;;;9.52;8.82;;;;;;;28.71;34.06;92683.69;4988751;28;20263;-72
2023/07/30 10:08:24;;;;;;;10.07;9.27;;;;;;;28.75;33.94;92671.75;4990509;28;20191;-71
2023/07/30 10:10:51;;;;;;;9.40;8.80;;;;;;;28.96;33.28;92679.75;4982525;28;21046;-69
2023/07/30 10:13:18;;;;;;;9.30;8.63;;;;;;;28.99;33.71;92667.44;4989629;28;20210;-68
2023/07/30 10:15:44;;;;;;;8.82;8.23;;;;;;;29.11;33.27;92659.72;4989926;28;20294;-67
2023/07/30 10:18:09;;;;;;;9.10;8.40;;;;;;;29.14;33.47;92667.00;4990368;28;20190;-65
2023/07/30 10:20:35;;;;;;;9.40;8.68;;;;;;;28.61;33.61;92658.38;4979929;28;20945;-65
2023/07/30 10:23:01;;;;;;;9.23;8.63;;;;;;;28.63;33.72;92655.28;4990468;28;20195;-66
2023/07/30 10:25:43;;;;;;;8.90;8.30;;;;;;;28.48;34.58;92656.50;4990073;28;20235;-74
2023/07/30 10:28:08;;;;;;;10.10;9.48;;;;;;;28.72;34.38;92653.72;4987393;28;20191;-74
2023/07/30 10:30:34;;;;;;;10.75;9.60;;;;;;;29.31;33.50;92652.69;4989946;28;20244;-72
2023/07/30 10:33:02;;;;;;;8.90;8.30;;;;;;;29.49;32.97;92647.22;4990967;28;20232;-76
2023/07/30 10:35:42;;;;;;;9.73;8.98;;;;;;;29.59;33.13;92646.34;4990295;28;20241;-84
2023/07/30 10:38:14;;;;;;;9.40;8.57;;;;;;;29.74;33.03;92653.22;4990599;28;20203;-83
2023/07/30 10:40:40;;;;;;;9.52;8.52;;;;;;;29.53;32.90;92643.34;4981183;28;20237;-84
2023/07/30 10:43:16;;;;;;;9.63;8.93;;;;;;;29.22;33.07;92638.16;4990306;28;20187;-81
2023/07/30 10:45:51;;;;;;;9.48;8.70;;;;;;;28.97;33.49;92640.94;4982705;28;20254;-80
2023/07/30 10:48:29;;;;;;;10.07;9.38;;;;;;;28.83;33.39;92632.94;4970191;29;20198;-75
2023/07/30 10:50:55;;;;;;;9.73;9.10;;;;;;;28.89;33.11;92641.38;4975648;28;20221;-73
2023/07/30 10:53:20;;;;;;;9.65;8.98;;;;;;;29.12;33.62;92623.59;4989228;28;20207;-73
2023/07/30 10:55:45;;;;;;;8.98;8.38;;;;;;;29.29;33.07;92622.72;4989096;28;20296;-74
2023/07/30 10:58:11;;;;;;;10.05;9.30;;;;;;;29.30;32.77;92615.44;4989907;28;20253;-78
2023/07/30 11:00:37;;;;;;;9.60;9.00;;;;;;;29.05;33.91;92612.88;4989689;28;20292;-80
2023/07/30 11:03:03;;;;;;;8.90;8.30;;;;;;;29.62;32.27;92614.03;4990353;28;20215;-77
2023/07/30 11:05:29;;;;;;;9.25;8.60;;;;;;;29.40;34.19;92612.66;4989853;28;20835;-78
2023/07/30 11:07:55;;;;;;;10.35;9.32;;;;;;;29.36;32.40;92611.94;5003686;28;20263;-76
2023/07/30 11:10:20;;;;;;;10.23;9.43;;;;;;;29.15;33.17;92600.56;4985731;28;20249;-71
2023/07/30 11:12:49;;;;;;;12.77;11.57;;;;;;;28.91;33.43;92596.81;4984033;28;20180;-71
2023/07/30 11:15:14;;;;;;;10.35;9.38;;;;;;;29.42;32.87;92593.44;4986087;28;20208;-84
2023/07/30 11:17:40;;;;;;;11.05;10.23;;;;;;;29.36;35.09;92595.78;4989134;28;20191;-83
2023/07/30 11:20:07;;;;;;;10.05;9.40;;;;;;;29.17;33.68;92585.53;4993443;28;20218;-81
2023/07/30 11:22:32;;;;;;;11.68;10.68;;;;;;;29.18;33.29;92545.97;4986151;28;20190;-74
2023/07/30 11:25:01;;;;;;;10.25;9.40;;;;;;;29.82;31.90;92589.31;4991107;28;20210;-84